sensor_id;sensor_type;location;lat;lon;timestamp;P1;durP1;ratioP1;P2;durP2;ratioP2
15261;SDS011;7733;51.554;13.590;2024-01-30T00:02:22;13.57;;;10.03;;
15261;SDS011;7733;51.554;13.590;2024-01-30T00:04:48;11.30;;;9.60;;
15261;SDS011;7733;51.554;13.590;2024-01-30T00:07:14;13.07;;;9.80;;
15261;SDS011;7733;51.554;13.590;2024-01-30T00:09:40;11.80;;;9.37;;
15261;SDS011;7733;51.554;13.590;2024-01-30T00:12:06;12.07;;;9.53;;
15261;SDS011;7733;51.554;13.590;2024-01-30T00:14:32;11.27;;;10.07;;
15261;SDS011;7733;51.554;13.590;2024-01-30T00:16:57;11.53;;;9.80;;
15261;SDS011;7733;51.554;13.590;2024-01-30T00:19:23;12.00;;;10.30;;
15261;SDS011;7733;51.554;13.590;2024-01-30T00:21:49;13.37;;;10.33;;
15261;SDS011;7733;51.554;13.590;2024-01-30T00:24:15;11.93;;;10.27;;
15261;SDS011;7733;51.554;13.590;2024-01-30T00:26:41;12.57;;;9.47;;
15261;SDS011;7733;51.554;13.590;2024-01-30T00:29:06;12.07;;;9.87;;
15261;SDS011;7733;51.554;13.590;2024-01-30T00:31:32;11.27;;;9.73;;
15261;SDS011;7733;51.554;13.590;2024-01-30T00:33:58;12.67;;;10.87;;
15261;SDS011;7733;51.554;13.590;2024-01-30T00:36:24;10.77;;;9.67;;
15261;SDS011;7733;51.554;13.590;2024-01-30T00:38:49;11.17;;;9.93;;
15261;SDS011;7733;51.554;13.590;2024-01-30T00:41:18;12.47;;;10.10;;
15261;SDS011;7733;51.554;13.590;2024-01-30T00:43:44;12.40;;;10.57;;
15261;SDS011;7733;51.554;13.590;2024-01-30T00:46:10;11.70;;;9.93;;
15261;SDS011;7733;51.554;13.590;2024-01-30T00:48:35;11.13;;;9.90;;
15261;SDS011;7733;51.554;13.590;2024-01-30T00:51:01;13.10;;;10.30;;
15261;SDS011;7733;51.554;13.590;2024-01-30T00:53:27;12.43;;;10.90;;
15261;SDS011;7733;51.554;13.590;2024-01-30T00:55:53;12.80;;;10.57;;
15261;SDS011;7733;51.554;13.590;2024-01-30T00:58:18;11.83;;;10.10;;
15261;SDS011;7733;51.554;13.590;2024-01-30T01:00:44;12.77;;;10.20;;
15261;SDS011;7733;51.554;13.590;2024-01-30T01:03:10;14.57;;;10.70;;
15261;SDS011;7733;51.554;13.590;2024-01-30T01:05:36;13.57;;;10.60;;
15261;SDS011;7733;51.554;13.590;2024-01-30T01:08:01;12.97;;;10.63;;
15261;SDS011;7733;51.554;13.590;2024-01-30T01:10:27;12.43;;;10.60;;
15261;SDS011;7733;51.554;13.590;2024-01-30T01:12:53;13.87;;;10.73;;
15261;SDS011;7733;51.554;13.590;2024-01-30T01:15:19;11.73;;;10.17;;
15261;SDS011;7733;51.554;13.590;2024-01-30T01:17:45;12.50;;;11.20;;
15261;SDS011;7733;51.554;13.590;2024-01-30T01:20:11;12.37;;;11.03;;
15261;SDS011;7733;51.554;13.590;2024-01-30T01:22:37;14.60;;;11.50;;
15261;SDS011;7733;51.554;13.590;2024-01-30T01:25:03;15.60;;;10.93;;
15261;SDS011;7733;51.554;13.590;2024-01-30T01:27:33;15.63;;;12.37;;
15261;SDS011;7733;51.554;13.590;2024-01-30T01:29:59;15.20;;;11.03;;
15261;SDS011;7733;51.554;13.590;2024-01-30T01:32:25;13.90;;;11.20;;
15261;SDS011;7733;51.554;13.590;2024-01-30T01:34:51;12.60;;;10.70;;
15261;SDS011;7733;51.554;13.590;2024-01-30T01:37:17;13.73;;;10.73;;
15261;SDS011;7733;51.554;13.590;2024-01-30T01:39:47;14.20;;;11.57;;
15261;SDS011;7733;51.554;13.590;2024-01-30T01:42:12;13.40;;;11.13;;
15261;SDS011;7733;51.554;13.590;2024-01-30T01:44:38;15.27;;;12.00;;
15261;SDS011;7733;51.554;13.590;2024-01-30T01:47:04;14.70;;;11.73;;
15261;SDS011;7733;51.554;13.590;2024-01-30T01:49:30;15.20;;;12.20;;
15261;SDS011;7733;51.554;13.590;2024-01-30T01:51:55;14.43;;;11.73;;
15261;SDS011;7733;51.554;13.590;2024-01-30T01:54:23;15.47;;;12.17;;
15261;SDS011;7733;51.554;13.590;2024-01-30T01:56:51;15.20;;;11.97;;
15261;SDS011;7733;51.554;13.590;2024-01-30T01:59:18;14.93;;;12.23;;
15261;SDS011;7733;51.554;13.590;2024-01-30T02:01:46;12.93;;;11.53;;
15261;SDS011;7733;51.554;13.590;2024-01-30T02:04:14;15.63;;;12.27;;
15261;SDS011;7733;51.554;13.590;2024-01-30T02:06:41;14.90;;;11.67;;
15261;SDS011;7733;51.554;13.590;2024-01-30T02:09:08;15.40;;;12.20;;
15261;SDS011;7733;51.554;13.590;2024-01-30T02:11:34;15.53;;;12.10;;
15261;SDS011;7733;51.554;13.590;2024-01-30T02:14:03;15.87;;;11.93;;
15261;SDS011;7733;51.554;13.590;2024-01-30T02:16:30;16.20;;;12.37;;
15261;SDS011;7733;51.554;13.590;2024-01-30T02:18:56;13.40;;;11.43;;
15261;SDS011;7733;51.554;13.590;2024-01-30T02:21:22;14.40;;;12.73;;
15261;SDS011;7733;51.554;13.590;2024-01-30T02:23:49;14.90;;;12.33;;
15261;SDS011;7733;51.554;13.590;2024-01-30T02:26:19;14.63;;;12.63;;
15261;SDS011;7733;51.554;13.590;2024-01-30T02:28:45;13.87;;;12.33;;
15261;SDS011;7733;51.554;13.590;2024-01-30T02:31:11;16.23;;;12.40;;
15261;SDS011;7733;51.554;13.590;2024-01-30T02:33:36;13.50;;;11.73;;
15261;SDS011;7733;51.554;13.590;2024-01-30T02:36:02;16.20;;;13.00;;
15261;SDS011;7733;51.554;13.590;2024-01-30T02:38:28;14.90;;;12.07;;
15261;SDS011;7733;51.554;13.590;2024-01-30T02:40:54;16.87;;;12.87;;
15261;SDS011;7733;51.554;13.590;2024-01-30T02:43:21;16.13;;;12.67;;
15261;SDS011;7733;51.554;13.590;2024-01-30T02:45:47;15.17;;;12.03;;
15261;SDS011;7733;51.554;13.590;2024-01-30T02:48:12;14.70;;;12.53;;
15261;SDS011;7733;51.554;13.590;2024-01-30T02:50:38;12.90;;;11.60;;
15261;SDS011;7733;51.554;13.590;2024-01-30T02:53:04;13.60;;;11.93;;
15261;SDS011;7733;51.554;13.590;2024-01-30T02:55:29;15.17;;;12.57;;
15261;SDS011;7733;51.554;13.590;2024-01-30T02:57:55;16.80;;;12.90;;
15261;SDS011;7733;51.554;13.590;2024-01-30T03:00:21;16.37;;;12.33;;
15261;SDS011;7733;51.554;13.590;2024-01-30T03:02:47;13.50;;;12.07;;
15261;SDS011;7733;51.554;13.590;2024-01-30T03:05:12;13.23;;;11.30;;
15261;SDS011;7733;51.554;13.590;2024-01-30T03:07:38;13.70;;;12.13;;
15261;SDS011;7733;51.554;13.590;2024-01-30T03:10:04;16.97;;;12.07;;
15261;SDS011;7733;51.554;13.590;2024-01-30T03:12:31;13.53;;;12.07;;
15261;SDS011;7733;51.554;13.590;2024-01-30T03:14:57;14.17;;;12.23;;
15261;SDS011;7733;51.554;13.590;2024-01-30T03:17:23;14.20;;;11.50;;
15261;SDS011;7733;51.554;13.590;2024-01-30T03:19:49;13.47;;;12.00;;
15261;SDS011;7733;51.554;13.590;2024-01-30T03:22:15;13.70;;;11.90;;
15261;SDS011;7733;51.554;13.590;2024-01-30T03:24:41;12.27;;;10.97;;
15261;SDS011;7733;51.554;13.590;2024-01-30T03:27:07;12.27;;;10.97;;
15261;SDS011;7733;51.554;13.590;2024-01-30T03:29:35;15.40;;;11.83;;
15261;SDS011;7733;51.554;13.590;2024-01-30T03:32:00;13.33;;;11.93;;
15261;SDS011;7733;51.554;13.590;2024-01-30T03:34:26;13.10;;;10.93;;
15261;SDS011;7733;51.554;13.590;2024-01-30T03:36:52;12.87;;;11.03;;
15261;SDS011;7733;51.554;13.590;2024-01-30T03:39:18;15.23;;;12.17;;
15261;SDS011;7733;51.554;13.590;2024-01-30T03:41:44;13.47;;;11.53;;
15261;SDS011;7733;51.554;13.590;2024-01-30T03:44:10;15.20;;;12.13;;
15261;SDS011;7733;51.554;13.590;2024-01-30T03:46:36;14.17;;;11.47;;
15261;SDS011;7733;51.554;13.590;2024-01-30T03:49:02;13.37;;;11.67;;
15261;SDS011;7733;51.554;13.590;2024-01-30T03:51:28;12.97;;;11.30;;
15261;SDS011;7733;51.554;13.590;2024-01-30T03:53:54;13.40;;;11.37;;
15261;SDS011;7733;51.554;13.590;2024-01-30T03:56:19;13.73;;;11.60;;
15261;SDS011;7733;51.554;13.590;2024-01-30T03:58:45;12.50;;;11.03;;
15261;SDS011;7733;51.554;13.590;2024-01-30T04:01:14;15.97;;;11.07;;
15261;SDS011;7733;51.554;13.590;2024-01-30T04:03:40;13.50;;;11.53;;
15261;SDS011;7733;51.554;13.590;2024-01-30T04:06:07;13.60;;;10.60;;
15261;SDS011;7733;51.554;13.590;2024-01-30T04:08:33;13.10;;;10.93;;
15261;SDS011;7733;51.554;13.590;2024-01-30T04:11:02;14.57;;;11.20;;
15261;SDS011;7733;51.554;13.590;2024-01-30T04:13:32;12.40;;;10.87;;
15261;SDS011;7733;51.554;13.590;2024-01-30T04:15:59;13.47;;;11.17;;
15261;SDS011;7733;51.554;13.590;2024-01-30T04:18:28;13.43;;;11.77;;
15261;SDS011;7733;51.554;13.590;2024-01-30T04:20:55;12.27;;;10.97;;
15261;SDS011;7733;51.554;13.590;2024-01-30T04:23:20;15.47;;;11.80;;
15261;SDS011;7733;51.554;13.590;2024-01-30T04:25:46;11.87;;;10.67;;
15261;SDS011;7733;51.554;13.590;2024-01-30T04:28:12;12.50;;;11.20;;
15261;SDS011;7733;51.554;13.590;2024-01-30T04:30:38;13.33;;;11.53;;
15261;SDS011;7733;51.554;13.590;2024-01-30T04:33:04;16.03;;;11.03;;
15261;SDS011;7733;51.554;13.590;2024-01-30T04:35:30;13.23;;;11.50;;
15261;SDS011;7733;51.554;13.590;2024-01-30T04:37:56;14.80;;;11.77;;
15261;SDS011;7733;51.554;13.590;2024-01-30T04:40:21;13.00;;;11.60;;
15261;SDS011;7733;51.554;13.590;2024-01-30T04:42:48;12.83;;;11.60;;
15261;SDS011;7733;51.554;13.590;2024-01-30T04:45:14;13.40;;;11.13;;
15261;SDS011;7733;51.554;13.590;2024-01-30T04:47:40;13.50;;;12.00;;
15261;SDS011;7733;51.554;13.590;2024-01-30T04:50:06;14.10;;;12.00;;
15261;SDS011;7733;51.554;13.590;2024-01-30T04:52:33;12.67;;;11.37;;
15261;SDS011;7733;51.554;13.590;2024-01-30T04:54:59;13.27;;;10.60;;
15261;SDS011;7733;51.554;13.590;2024-01-30T04:57:25;14.43;;;11.37;;
15261;SDS011;7733;51.554;13.590;2024-01-30T04:59:51;12.57;;;11.27;;
15261;SDS011;7733;51.554;13.590;2024-01-30T05:02:17;15.07;;;11.27;;
15261;SDS011;7733;51.554;13.590;2024-01-30T05:04:42;12.93;;;11.60;;
15261;SDS011;7733;51.554;13.590;2024-01-30T05:07:08;12.23;;;10.90;;
15261;SDS011;7733;51.554;13.590;2024-01-30T05:09:34;16.80;;;11.87;;
15261;SDS011;7733;51.554;13.590;2024-01-30T05:11:59;13.87;;;11.73;;
15261;SDS011;7733;51.554;13.590;2024-01-30T05:14:25;16.57;;;12.10;;
15261;SDS011;7733;51.554;13.590;2024-01-30T05:16:51;13.90;;;10.97;;
15261;SDS011;7733;51.554;13.590;2024-01-30T05:19:17;14.40;;;12.20;;
15261;SDS011;7733;51.554;13.590;2024-01-30T05:21:42;12.90;;;11.00;;
15261;SDS011;7733;51.554;13.590;2024-01-30T05:24:08;13.03;;;11.63;;
15261;SDS011;7733;51.554;13.590;2024-01-30T05:26:35;13.03;;;11.57;;
15261;SDS011;7733;51.554;13.590;2024-01-30T05:29:01;12.70;;;11.17;;
15261;SDS011;7733;51.554;13.590;2024-01-30T05:31:27;13.83;;;11.93;;
15261;SDS011;7733;51.554;13.590;2024-01-30T05:33:54;16.03;;;12.03;;
15261;SDS011;7733;51.554;13.590;2024-01-30T05:36:19;13.70;;;11.67;;
15261;SDS011;7733;51.554;13.590;2024-01-30T05:38:46;14.03;;;11.60;;
15261;SDS011;7733;51.554;13.590;2024-01-30T05:41:12;14.17;;;11.73;;
15261;SDS011;7733;51.554;13.590;2024-01-30T05:43:38;15.23;;;11.83;;
15261;SDS011;7733;51.554;13.590;2024-01-30T05:46:03;15.50;;;11.17;;
15261;SDS011;7733;51.554;13.590;2024-01-30T05:48:29;12.60;;;11.23;;
15261;SDS011;7733;51.554;13.590;2024-01-30T05:50:55;13.13;;;11.70;;
15261;SDS011;7733;51.554;13.590;2024-01-30T05:53:21;13.50;;;11.60;;
15261;SDS011;7733;51.554;13.590;2024-01-30T05:55:47;14.53;;;11.83;;
15261;SDS011;7733;51.554;13.590;2024-01-30T05:58:13;15.23;;;12.33;;
15261;SDS011;7733;51.554;13.590;2024-01-30T06:00:38;15.67;;;13.00;;
15261;SDS011;7733;51.554;13.590;2024-01-30T06:03:04;14.10;;;11.73;;
15261;SDS011;7733;51.554;13.590;2024-01-30T06:05:30;16.70;;;12.80;;
15261;SDS011;7733;51.554;13.590;2024-01-30T06:07:55;13.97;;;11.93;;
15261;SDS011;7733;51.554;13.590;2024-01-30T06:10:21;14.83;;;11.67;;
15261;SDS011;7733;51.554;13.590;2024-01-30T06:12:47;14.27;;;12.23;;
15261;SDS011;7733;51.554;13.590;2024-01-30T06:15:13;13.27;;;11.80;;
15261;SDS011;7733;51.554;13.590;2024-01-30T06:17:39;16.03;;;12.57;;
15261;SDS011;7733;51.554;13.590;2024-01-30T06:20:05;13.67;;;11.30;;
15261;SDS011;7733;51.554;13.590;2024-01-30T06:22:31;14.67;;;11.50;;
15261;SDS011;7733;51.554;13.590;2024-01-30T06:24:57;15.90;;;11.77;;
15261;SDS011;7733;51.554;13.590;2024-01-30T06:27:24;13.57;;;12.13;;
15261;SDS011;7733;51.554;13.590;2024-01-30T06:29:49;17.40;;;11.80;;
15261;SDS011;7733;51.554;13.590;2024-01-30T06:32:15;15.33;;;12.10;;
15261;SDS011;7733;51.554;13.590;2024-01-30T06:34:41;14.30;;;11.93;;
15261;SDS011;7733;51.554;13.590;2024-01-30T06:37:09;15.30;;;11.67;;
15261;SDS011;7733;51.554;13.590;2024-01-30T06:39:35;14.53;;;11.87;;
15261;SDS011;7733;51.554;13.590;2024-01-30T06:42:00;13.07;;;11.13;;
15261;SDS011;7733;51.554;13.590;2024-01-30T06:44:26;15.53;;;12.03;;
15261;SDS011;7733;51.554;13.590;2024-01-30T06:46:53;15.40;;;11.80;;
15261;SDS011;7733;51.554;13.590;2024-01-30T06:49:19;16.97;;;12.40;;
15261;SDS011;7733;51.554;13.590;2024-01-30T06:51:46;15.13;;;12.23;;
15261;SDS011;7733;51.554;13.590;2024-01-30T06:54:12;13.97;;;11.23;;
15261;SDS011;7733;51.554;13.590;2024-01-30T06:56:38;13.27;;;11.57;;
15261;SDS011;7733;51.554;13.590;2024-01-30T06:59:04;16.43;;;12.30;;
15261;SDS011;7733;51.554;13.590;2024-01-30T07:01:30;16.23;;;11.80;;
15261;SDS011;7733;51.554;13.590;2024-01-30T07:03:56;15.07;;;11.70;;
15261;SDS011;7733;51.554;13.590;2024-01-30T07:06:23;13.73;;;11.30;;
15261;SDS011;7733;51.554;13.590;2024-01-30T07:08:49;13.00;;;11.33;;
15261;SDS011;7733;51.554;13.590;2024-01-30T07:11:21;14.27;;;11.07;;
15261;SDS011;7733;51.554;13.590;2024-01-30T07:13:48;13.17;;;10.97;;
15261;SDS011;7733;51.554;13.590;2024-01-30T07:16:17;15.10;;;10.93;;
15261;SDS011;7733;51.554;13.590;2024-01-30T07:18:43;15.67;;;11.83;;
15261;SDS011;7733;51.554;13.590;2024-01-30T07:21:09;13.20;;;11.67;;
15261;SDS011;7733;51.554;13.590;2024-01-30T07:23:36;14.67;;;11.87;;
15261;SDS011;7733;51.554;13.590;2024-01-30T07:26:04;15.67;;;11.70;;
15261;SDS011;7733;51.554;13.590;2024-01-30T07:28:31;14.70;;;11.53;;
15261;SDS011;7733;51.554;13.590;2024-01-30T07:30:58;14.50;;;12.30;;
15261;SDS011;7733;51.554;13.590;2024-01-30T07:33:24;13.07;;;11.10;;
15261;SDS011;7733;51.554;13.590;2024-01-30T07:35:49;14.20;;;11.53;;
15261;SDS011;7733;51.554;13.590;2024-01-30T07:38:17;12.97;;;11.40;;
15261;SDS011;7733;51.554;13.590;2024-01-30T07:40:43;15.00;;;11.50;;
15261;SDS011;7733;51.554;13.590;2024-01-30T07:43:09;12.97;;;11.60;;
15261;SDS011;7733;51.554;13.590;2024-01-30T07:45:35;13.17;;;11.77;;
15261;SDS011;7733;51.554;13.590;2024-01-30T07:48:02;15.83;;;11.50;;
15261;SDS011;7733;51.554;13.590;2024-01-30T07:50:30;12.30;;;11.00;;
15261;SDS011;7733;51.554;13.590;2024-01-30T07:52:57;13.23;;;11.37;;
15261;SDS011;7733;51.554;13.590;2024-01-30T07:55:25;14.37;;;12.03;;
15261;SDS011;7733;51.554;13.590;2024-01-30T07:57:54;12.60;;;11.17;;
15261;SDS011;7733;51.554;13.590;2024-01-30T08:00:21;14.10;;;11.87;;
15261;SDS011;7733;51.554;13.590;2024-01-30T08:02:47;16.60;;;13.47;;
15261;SDS011;7733;51.554;13.590;2024-01-30T08:05:13;14.23;;;12.17;;
15261;SDS011;7733;51.554;13.590;2024-01-30T08:07:40;13.53;;;11.17;;
15261;SDS011;7733;51.554;13.590;2024-01-30T08:10:07;12.23;;;10.53;;
15261;SDS011;7733;51.554;13.590;2024-01-30T08:12:35;13.60;;;11.50;;
15261;SDS011;7733;51.554;13.590;2024-01-30T08:15:00;12.63;;;10.57;;
15261;SDS011;7733;51.554;13.590;2024-01-30T08:17:26;14.60;;;10.87;;
15261;SDS011;7733;51.554;13.590;2024-01-30T08:19:52;16.77;;;10.83;;
15261;SDS011;7733;51.554;13.590;2024-01-30T08:22:17;13.53;;;10.47;;
15261;SDS011;7733;51.554;13.590;2024-01-30T08:24:43;15.80;;;10.80;;
15261;SDS011;7733;51.554;13.590;2024-01-30T08:27:09;14.60;;;11.23;;
15261;SDS011;7733;51.554;13.590;2024-01-30T08:29:35;12.83;;;11.30;;
15261;SDS011;7733;51.554;13.590;2024-01-30T08:32:01;15.33;;;10.93;;
15261;SDS011;7733;51.554;13.590;2024-01-30T08:34:27;14.30;;;10.97;;
15261;SDS011;7733;51.554;13.590;2024-01-30T08:36:53;12.03;;;10.50;;
15261;SDS011;7733;51.554;13.590;2024-01-30T08:39:19;12.13;;;10.87;;
15261;SDS011;7733;51.554;13.590;2024-01-30T08:41:44;11.40;;;10.10;;
15261;SDS011;7733;51.554;13.590;2024-01-30T08:44:10;14.90;;;10.40;;
15261;SDS011;7733;51.554;13.590;2024-01-30T08:46:36;11.63;;;10.13;;
15261;SDS011;7733;51.554;13.590;2024-01-30T08:49:02;10.87;;;9.77;;
15261;SDS011;7733;51.554;13.590;2024-01-30T08:51:29;13.50;;;10.93;;
15261;SDS011;7733;51.554;13.590;2024-01-30T08:53:56;15.63;;;11.30;;
15261;SDS011;7733;51.554;13.590;2024-01-30T08:56:21;11.87;;;10.53;;
15261;SDS011;7733;51.554;13.590;2024-01-30T08:58:47;12.83;;;11.00;;
15261;SDS011;7733;51.554;13.590;2024-01-30T09:01:13;13.17;;;11.13;;
15261;SDS011;7733;51.554;13.590;2024-01-30T09:03:39;13.23;;;11.20;;
15261;SDS011;7733;51.554;13.590;2024-01-30T09:06:09;13.17;;;10.83;;
15261;SDS011;7733;51.554;13.590;2024-01-30T09:08:35;14.57;;;10.60;;
15261;SDS011;7733;51.554;13.590;2024-01-30T09:11:08;12.77;;;10.40;;
15261;SDS011;7733;51.554;13.590;2024-01-30T09:13:37;12.80;;;11.27;;
15261;SDS011;7733;51.554;13.590;2024-01-30T09:16:03;11.97;;;10.63;;
15261;SDS011;7733;51.554;13.590;2024-01-30T09:18:29;12.10;;;10.83;;
15261;SDS011;7733;51.554;13.590;2024-01-30T09:20:55;11.90;;;10.70;;
15261;SDS011;7733;51.554;13.590;2024-01-30T09:23:21;12.40;;;10.87;;
15261;SDS011;7733;51.554;13.590;2024-01-30T09:25:47;11.57;;;10.37;;
15261;SDS011;7733;51.554;13.590;2024-01-30T09:28:13;12.23;;;10.90;;
15261;SDS011;7733;51.554;13.590;2024-01-30T09:30:39;13.80;;;11.07;;
15261;SDS011;7733;51.554;13.590;2024-01-30T09:33:05;10.93;;;9.83;;
15261;SDS011;7733;51.554;13.590;2024-01-30T09:35:32;11.83;;;10.13;;
15261;SDS011;7733;51.554;13.590;2024-01-30T09:37:58;11.57;;;10.03;;
15261;SDS011;7733;51.554;13.590;2024-01-30T09:40:24;11.50;;;9.67;;
15261;SDS011;7733;51.554;13.590;2024-01-30T09:42:50;11.57;;;9.80;;
15261;SDS011;7733;51.554;13.590;2024-01-30T09:45:19;12.50;;;10.00;;
15261;SDS011;7733;51.554;13.590;2024-01-30T09:47:49;11.67;;;10.20;;
15261;SDS011;7733;51.554;13.590;2024-01-30T09:50:15;11.37;;;9.70;;
15261;SDS011;7733;51.554;13.590;2024-01-30T09:52:44;10.60;;;9.50;;
15261;SDS011;7733;51.554;13.590;2024-01-30T09:55:12;10.60;;;9.50;;
15261;SDS011;7733;51.554;13.590;2024-01-30T09:57:38;10.83;;;9.73;;
15261;SDS011;7733;51.554;13.590;2024-01-30T10:00:05;11.37;;;9.80;;
15261;SDS011;7733;51.554;13.590;2024-01-30T10:02:34;10.37;;;9.30;;
15261;SDS011;7733;51.554;13.590;2024-01-30T10:05:01;10.73;;;9.63;;
15261;SDS011;7733;51.554;13.590;2024-01-30T10:07:27;11.43;;;10.23;;
15261;SDS011;7733;51.554;13.590;2024-01-30T10:09:53;11.33;;;10.10;;
15261;SDS011;7733;51.554;13.590;2024-01-30T10:12:21;13.30;;;10.93;;
15261;SDS011;7733;51.554;13.590;2024-01-30T10:14:48;11.93;;;10.60;;
15261;SDS011;7733;51.554;13.590;2024-01-30T10:17:14;16.77;;;13.43;;
15261;SDS011;7733;51.554;13.590;2024-01-30T10:19:40;19.73;;;15.80;;
15261;SDS011;7733;51.554;13.590;2024-01-30T10:22:07;14.93;;;12.60;;
15261;SDS011;7733;51.554;13.590;2024-01-30T10:24:34;19.27;;;15.90;;
15261;SDS011;7733;51.554;13.590;2024-01-30T10:27:00;21.57;;;18.10;;
15261;SDS011;7733;51.554;13.590;2024-01-30T10:29:26;11.53;;;10.37;;
15261;SDS011;7733;51.554;13.590;2024-01-30T10:31:57;11.27;;;9.57;;
15261;SDS011;7733;51.554;13.590;2024-01-30T10:34:26;12.73;;;11.37;;
15261;SDS011;7733;51.554;13.590;2024-01-30T10:37:13;11.17;;;9.33;;
15261;SDS011;7733;51.554;13.590;2024-01-30T10:39:42;10.07;;;9.07;;
15261;SDS011;7733;51.554;13.590;2024-01-30T10:42:15;10.20;;;9.20;;
15261;SDS011;7733;51.554;13.590;2024-01-30T10:47:27;10.57;;;9.43;;
15261;SDS011;7733;51.554;13.590;2024-01-30T10:49:54;8.73;;;7.83;;
15261;SDS011;7733;51.554;13.590;2024-01-30T10:52:22;10.53;;;8.97;;
15261;SDS011;7733;51.554;13.590;2024-01-30T10:54:53;8.77;;;7.97;;
15261;SDS011;7733;51.554;13.590;2024-01-30T10:57:20;11.93;;;8.40;;
15261;SDS011;7733;51.554;13.590;2024-01-30T10:59:49;12.20;;;8.70;;
15261;SDS011;7733;51.554;13.590;2024-01-30T11:02:20;10.00;;;8.43;;
15261;SDS011;7733;51.554;13.590;2024-01-30T11:04:48;9.00;;;8.10;;
15261;SDS011;7733;51.554;13.590;2024-01-30T11:07:18;9.00;;;8.10;;
15261;SDS011;7733;51.554;13.590;2024-01-30T11:09:52;9.03;;;8.13;;
15261;SDS011;7733;51.554;13.590;2024-01-30T11:12:29;10.20;;;8.13;;
15261;SDS011;7733;51.554;13.590;2024-01-30T11:15:03;11.53;;;8.53;;
15261;SDS011;7733;51.554;13.590;2024-01-30T11:22:57;15.40;;;12.83;;
15261;SDS011;7733;51.554;13.590;2024-01-30T11:25:27;9.57;;;8.70;;
15261;SDS011;7733;51.554;13.590;2024-01-30T11:27:53;16.17;;;13.97;;
15261;SDS011;7733;51.554;13.590;2024-01-30T11:30:24;14.70;;;11.40;;
15261;SDS011;7733;51.554;13.590;2024-01-30T11:33:12;10.80;;;9.80;;
15261;SDS011;7733;51.554;13.590;2024-01-30T11:35:43;9.77;;;8.77;;
15261;SDS011;7733;51.554;13.590;2024-01-30T11:38:18;9.43;;;8.53;;
15261;SDS011;7733;51.554;13.590;2024-01-30T11:40:44;8.23;;;7.53;;
15261;SDS011;7733;51.554;13.590;2024-01-30T11:43:11;9.93;;;8.93;;
15261;SDS011;7733;51.554;13.590;2024-01-30T11:45:37;9.60;;;8.20;;
15261;SDS011;7733;51.554;13.590;2024-01-30T11:48:04;11.50;;;9.23;;
15261;SDS011;7733;51.554;13.590;2024-01-30T11:50:32;9.87;;;8.97;;
15261;SDS011;7733;51.554;13.590;2024-01-30T11:52:59;8.70;;;7.80;;
15261;SDS011;7733;51.554;13.590;2024-01-30T11:55:26;8.43;;;7.73;;
15261;SDS011;7733;51.554;13.590;2024-01-30T11:57:56;8.43;;;7.60;;
15261;SDS011;7733;51.554;13.590;2024-01-30T12:00:23;9.40;;;8.27;;
15261;SDS011;7733;51.554;13.590;2024-01-30T12:02:50;10.03;;;9.03;;
15261;SDS011;7733;51.554;13.590;2024-01-30T12:05:20;9.63;;;8.63;;
15261;SDS011;7733;51.554;13.590;2024-01-30T12:07:47;9.30;;;8.40;;
15261;SDS011;7733;51.554;13.590;2024-01-30T12:10:13;9.50;;;8.60;;
15261;SDS011;7733;51.554;13.590;2024-01-30T12:12:44;9.73;;;8.73;;
15261;SDS011;7733;51.554;13.590;2024-01-30T12:15:13;10.33;;;8.60;;
15261;SDS011;7733;51.554;13.590;2024-01-30T12:17:39;8.60;;;7.90;;
15261;SDS011;7733;51.554;13.590;2024-01-30T12:20:12;8.60;;;7.90;;
15261;SDS011;7733;51.554;13.590;2024-01-30T12:22:40;8.80;;;8.00;;
15261;SDS011;7733;51.554;13.590;2024-01-30T12:25:12;8.67;;;7.83;;
15261;SDS011;7733;51.554;13.590;2024-01-30T12:27:44;9.63;;;8.30;;
15261;SDS011;7733;51.554;13.590;2024-01-30T12:30:12;9.37;;;8.47;;
15261;SDS011;7733;51.554;13.590;2024-01-30T12:32:40;10.33;;;8.43;;
15261;SDS011;7733;51.554;13.590;2024-01-30T12:35:09;9.63;;;8.73;;
15261;SDS011;7733;51.554;13.590;2024-01-30T12:37:36;9.23;;;8.30;;
15261;SDS011;7733;51.554;13.590;2024-01-30T12:40:03;8.97;;;8.07;;
15261;SDS011;7733;51.554;13.590;2024-01-30T12:42:31;9.23;;;8.33;;
15261;SDS011;7733;51.554;13.590;2024-01-30T12:44:59;10.10;;;8.30;;
15261;SDS011;7733;51.554;13.590;2024-01-30T12:47:27;10.87;;;8.33;;
15261;SDS011;7733;51.554;13.590;2024-01-30T12:49:53;9.43;;;8.27;;
15261;SDS011;7733;51.554;13.590;2024-01-30T12:52:19;9.03;;;8.20;;
15261;SDS011;7733;51.554;13.590;2024-01-30T12:54:49;10.10;;;8.83;;
15261;SDS011;7733;51.554;13.590;2024-01-30T12:57:15;15.73;;;14.10;;
15261;SDS011;7733;51.554;13.590;2024-01-30T12:59:44;9.60;;;8.60;;
15261;SDS011;7733;51.554;13.590;2024-01-30T13:02:12;9.23;;;8.33;;
15261;SDS011;7733;51.554;13.590;2024-01-30T13:04:38;9.83;;;8.90;;
15261;SDS011;7733;51.554;13.590;2024-01-30T13:07:05;9.10;;;8.17;;
15261;SDS011;7733;51.554;13.590;2024-01-30T13:09:31;9.20;;;8.30;;
15261;SDS011;7733;51.554;13.590;2024-01-30T13:11:57;9.00;;;8.07;;
15261;SDS011;7733;51.554;13.590;2024-01-30T13:14:23;9.27;;;8.40;;
15261;SDS011;7733;51.554;13.590;2024-01-30T13:16:49;8.90;;;8.10;;
15261;SDS011;7733;51.554;13.590;2024-01-30T13:19:16;9.03;;;7.77;;
15261;SDS011;7733;51.554;13.590;2024-01-30T13:21:42;8.30;;;7.50;;
15261;SDS011;7733;51.554;13.590;2024-01-30T13:24:08;9.93;;;8.93;;
15261;SDS011;7733;51.554;13.590;2024-01-30T13:26:34;12.43;;;11.33;;
15261;SDS011;7733;51.554;13.590;2024-01-30T13:29:01;13.20;;;11.80;;
15261;SDS011;7733;51.554;13.590;2024-01-30T13:31:28;11.97;;;10.77;;
15261;SDS011;7733;51.554;13.590;2024-01-30T13:33:55;11.07;;;9.97;;
15261;SDS011;7733;51.554;13.590;2024-01-30T13:36:21;16.43;;;13.03;;
15261;SDS011;7733;51.554;13.590;2024-01-30T13:38:47;13.70;;;11.53;;
15261;SDS011;7733;51.554;13.590;2024-01-30T13:41:13;12.13;;;10.73;;
15261;SDS011;7733;51.554;13.590;2024-01-30T13:43:39;10.73;;;9.67;;
15261;SDS011;7733;51.554;13.590;2024-01-30T13:46:05;9.43;;;8.47;;
15261;SDS011;7733;51.554;13.590;2024-01-30T13:48:33;10.03;;;9.03;;
15261;SDS011;7733;51.554;13.590;2024-01-30T13:50:58;9.80;;;8.80;;
15261;SDS011;7733;51.554;13.590;2024-01-30T13:53:24;10.80;;;9.00;;
15261;SDS011;7733;51.554;13.590;2024-01-30T13:55:50;9.60;;;8.70;;
15261;SDS011;7733;51.554;13.590;2024-01-30T13:58:15;10.77;;;9.67;;
15261;SDS011;7733;51.554;13.590;2024-01-30T14:00:41;10.73;;;9.60;;
15261;SDS011;7733;51.554;13.590;2024-01-30T14:03:07;10.10;;;9.10;;
15261;SDS011;7733;51.554;13.590;2024-01-30T14:05:33;9.90;;;8.90;;
15261;SDS011;7733;51.554;13.590;2024-01-30T14:07:59;10.50;;;8.70;;
15261;SDS011;7733;51.554;13.590;2024-01-30T14:10:25;12.07;;;10.77;;
15261;SDS011;7733;51.554;13.590;2024-01-30T14:12:51;11.33;;;10.07;;
15261;SDS011;7733;51.554;13.590;2024-01-30T14:15:17;10.37;;;9.37;;
15261;SDS011;7733;51.554;13.590;2024-01-30T14:17:43;10.00;;;9.00;;
15261;SDS011;7733;51.554;13.590;2024-01-30T14:20:13;11.40;;;9.67;;
15261;SDS011;7733;51.554;13.590;2024-01-30T14:22:43;11.00;;;9.40;;
15261;SDS011;7733;51.554;13.590;2024-01-30T14:25:09;10.67;;;9.57;;
15261;SDS011;7733;51.554;13.590;2024-01-30T14:27:35;15.77;;;9.97;;
15261;SDS011;7733;51.554;13.590;2024-01-30T14:30:01;11.53;;;9.77;;
15261;SDS011;7733;51.554;13.590;2024-01-30T14:32:28;10.63;;;9.53;;